sensor_id;sensor_type;location;lat;lon;timestamp;temperature;humidity
25346;DHT22;13300;51.032;3.710;2022-10-16T00:01:15;14.30;99.90
25346;DHT22;13300;51.032;3.710;2022-10-16T00:03:43;14.20;99.90
25346;DHT22;13300;51.032;3.710;2022-10-16T00:06:09;14.20;99.90
25346;DHT22;13300;51.032;3.710;2022-10-16T00:08:36;14.10;99.90
25346;DHT22;13300;51.032;3.710;2022-10-16T00:11:08;14.10;99.90
25346;DHT22;13300;51.032;3.710;2022-10-16T00:13:35;14.10;99.90
25346;DHT22;13300;51.032;3.710;2022-10-16T00:16:02;14.00;99.90
25346;DHT22;13300;51.032;3.710;2022-10-16T00:18:29;14.00;99.90
25346;DHT22;13300;51.032;3.710;2022-10-16T00:20:55;14.00;99.90
25346;DHT22;13300;51.032;3.710;2022-10-16T00:23:26;13.90;99.90
25346;DHT22;13300;51.032;3.710;2022-10-16T00:25:56;13.90;99.90
25346;DHT22;13300;51.032;3.710;2022-10-16T00:28:22;13.90;99.90
25346;DHT22;13300;51.032;3.710;2022-10-16T00:30:48;13.80;99.90
25346;DHT22;13300;51.032;3.710;2022-10-16T00:33:13;13.80;99.90
25346;DHT22;13300;51.032;3.710;2022-10-16T00:35:39;13.80;99.90
25346;DHT22;13300;51.032;3.710;2022-10-16T00:38:05;13.80;99.90
25346;DHT22;13300;51.032;3.710;2022-10-16T00:40:30;13.70;99.90
25346;DHT22;13300;51.032;3.710;2022-10-16T00:42:57;13.80;99.90
25346;DHT22;13300;51.032;3.710;2022-10-16T00:45:23;13.80;99.90
25346;DHT22;13300;51.032;3.710;2022-10-16T00:47:49;13.80;99.90
25346;DHT22;13300;51.032;3.710;2022-10-16T00:50:32;13.80;99.90
25346;DHT22;13300;51.032;3.710;2022-10-16T00:52:59;13.90;99.90
25346;DHT22;13300;51.032;3.710;2022-10-16T00:55:26;13.80;99.90
25346;DHT22;13300;51.032;3.710;2022-10-16T00:57:53;13.80;99.90
25346;DHT22;13300;51.032;3.710;2022-10-16T01:00:22;13.80;99.90
25346;DHT22;13300;51.032;3.710;2022-10-16T01:02:59;13.80;99.90
25346;DHT22;13300;51.032;3.710;2022-10-16T01:05:49;13.90;99.90
25346;DHT22;13300;51.032;3.710;2022-10-16T01:08:25;13.90;99.90
25346;DHT22;13300;51.032;3.710;2022-10-16T01:11:17;13.90;99.90
25346;DHT22;13300;51.032;3.710;2022-10-16T01:13:47;13.80;99.90
25346;DHT22;13300;51.032;3.710;2022-10-16T01:16:36;13.80;99.90
25346;DHT22;13300;51.032;3.710;2022-10-16T01:19:12;13.70;99.90
25346;DHT22;13300;51.032;3.710;2022-10-16T01:21:43;13.70;99.90
25346;DHT22;13300;51.032;3.710;2022-10-16T01:24:41;13.70;99.90
25346;DHT22;13300;51.032;3.710;2022-10-16T01:27:17;13.70;99.90
25346;DHT22;13300;51.032;3.710;2022-10-16T01:30:35;13.70;99.90
25346;DHT22;13300;51.032;3.710;2022-10-16T01:35:19;13.80;99.90
25346;DHT22;13300;51.032;3.710;2022-10-16T01:38:00;13.80;99.90
25346;DHT22;13300;51.032;3.710;2022-10-16T01:40:28;13.70;99.90
25346;DHT22;13300;51.032;3.710;2022-10-16T01:43:00;13.70;99.90
25346;DHT22;13300;51.032;3.710;2022-10-16T01:45:28;13.70;99.90
25346;DHT22;13300;51.032;3.710;2022-10-16T01:47:56;13.70;99.90
25346;DHT22;13300;51.032;3.710;2022-10-16T01:50:22;13.80;99.90
25346;DHT22;13300;51.032;3.710;2022-10-16T01:52:51;13.80;99.90
25346;DHT22;13300;51.032;3.710;2022-10-16T01:55:25;13.80;99.90
25346;DHT22;13300;51.032;3.710;2022-10-16T01:57:53;13.80;99.90
25346;DHT22;13300;51.032;3.710;2022-10-16T02:00:21;13.80;99.90
25346;DHT22;13300;51.032;3.710;2022-10-16T02:02:49;13.80;99.90
25346;DHT22;13300;51.032;3.710;2022-10-16T02:07:48;13.70;99.90
25346;DHT22;13300;51.032;3.710;2022-10-16T02:10:14;13.70;99.90
25346;DHT22;13300;51.032;3.710;2022-10-16T02:12:44;13.70;99.90
25346;DHT22;13300;51.032;3.710;2022-10-16T02:15:11;13.60;99.90
25346;DHT22;13300;51.032;3.710;2022-10-16T02:17:37;13.60;99.90
25346;DHT22;13300;51.032;3.710;2022-10-16T02:20:03;13.60;99.90
25346;DHT22;13300;51.032;3.710;2022-10-16T02:22:36;13.70;99.90
25346;DHT22;13300;51.032;3.710;2022-10-16T02:25:11;13.70;99.90
25346;DHT22;13300;51.032;3.710;2022-10-16T02:30:25;13.60;99.90
25346;DHT22;13300;51.032;3.710;2022-10-16T02:32:53;13.50;99.90
25346;DHT22;13300;51.032;3.710;2022-10-16T02:35:21;13.60;99.90
25346;DHT22;13300;51.032;3.710;2022-10-16T02:37:49;13.50;99.90
25346;DHT22;13300;51.032;3.710;2022-10-16T02:40:15;13.60;99.90
25346;DHT22;13300;51.032;3.710;2022-10-16T02:42:42;13.60;99.90
25346;DHT22;13300;51.032;3.710;2022-10-16T02:45:09;13.60;99.90
25346;DHT22;13300;51.032;3.710;2022-10-16T02:47:35;13.70;99.90
25346;DHT22;13300;51.032;3.710;2022-10-16T02:50:01;13.70;99.90
25346;DHT22;13300;51.032;3.710;2022-10-16T02:52:27;13.70;99.90
25346;DHT22;13300;51.032;3.710;2022-10-16T02:54:52;13.70;99.90
25346;DHT22;13300;51.032;3.710;2022-10-16T02:57:18;13.80;99.90
25346;DHT22;13300;51.032;3.710;2022-10-16T02:59:44;13.70;99.90
25346;DHT22;13300;51.032;3.710;2022-10-16T03:02:10;13.60;99.90
25346;DHT22;13300;51.032;3.710;2022-10-16T03:04:35;13.60;99.90
25346;DHT22;13300;51.032;3.710;2022-10-16T03:07:01;13.70;99.90
25346;DHT22;13300;51.032;3.710;2022-10-16T03:09:27;13.70;99.90
25346;DHT22;13300;51.032;3.710;2022-10-16T03:11:53;13.70;99.90
25346;DHT22;13300;51.032;3.710;2022-10-16T03:14:18;13.70;99.90
25346;DHT22;13300;51.032;3.710;2022-10-16T03:16:44;13.70;99.90
25346;DHT22;13300;51.032;3.710;2022-10-16T03:19:10;13.80;99.90
25346;DHT22;13300;51.032;3.710;2022-10-16T03:21:35;13.80;99.90
25346;DHT22;13300;51.032;3.710;2022-10-16T03:24:01;13.60;99.90
25346;DHT22;13300;51.032;3.710;2022-10-16T03:26:27;13.50;99.90
25346;DHT22;13300;51.032;3.710;2022-10-16T03:28:53;13.50;99.90
25346;DHT22;13300;51.032;3.710;2022-10-16T03:31:18;13.50;99.90
25346;DHT22;13300;51.032;3.710;2022-10-16T03:33:44;13.50;99.90
25346;DHT22;13300;51.032;3.710;2022-10-16T03:36:09;13.50;99.90
25346;DHT22;13300;51.032;3.710;2022-10-16T03:38:35;13.50;99.90
25346;DHT22;13300;51.032;3.710;2022-10-16T03:41:01;13.50;99.90
25346;DHT22;13300;51.032;3.710;2022-10-16T03:43:26;13.60;99.90
25346;DHT22;13300;51.032;3.710;2022-10-16T03:45:52;13.50;99.90
25346;DHT22;13300;51.032;3.710;2022-10-16T03:48:19;13.60;99.90
25346;DHT22;13300;51.032;3.710;2022-10-16T03:50:44;13.60;99.90
25346;DHT22;13300;51.032;3.710;2022-10-16T03:53:11;13.60;99.90
25346;DHT22;13300;51.032;3.710;2022-10-16T03:55:37;13.60;99.90
25346;DHT22;13300;51.032;3.710;2022-10-16T03:58:02;13.60;99.90
25346;DHT22;13300;51.032;3.710;2022-10-16T04:00:28;13.60;99.90
25346;DHT22;13300;51.032;3.710;2022-10-16T04:02:54;13.50;99.90
25346;DHT22;13300;51.032;3.710;2022-10-16T04:05:19;13.50;99.90
25346;DHT22;13300;51.032;3.710;2022-10-16T04:07:45;13.40;99.90
25346;DHT22;13300;51.032;3.710;2022-10-16T04:10:11;13.40;99.90
25346;DHT22;13300;51.032;3.710;2022-10-16T04:12:36;13.40;99.90
25346;DHT22;13300;51.032;3.710;2022-10-16T04:15:02;13.50;99.90
25346;DHT22;13300;51.032;3.710;2022-10-16T04:17:28;13.50;99.90
25346;DHT22;13300;51.032;3.710;2022-10-16T04:19:53;13.40;99.90
25346;DHT22;13300;51.032;3.710;2022-10-16T04:22:19;13.40;99.90
25346;DHT22;13300;51.032;3.710;2022-10-16T04:24:44;13.40;99.90
25346;DHT22;13300;51.032;3.710;2022-10-16T04:27:10;13.30;99.90
25346;DHT22;13300;51.032;3.710;2022-10-16T04:29:36;13.20;99.90
25346;DHT22;13300;51.032;3.710;2022-10-16T04:32:01;13.40;99.90
25346;DHT22;13300;51.032;3.710;2022-10-16T04:34:27;13.30;99.90
25346;DHT22;13300;51.032;3.710;2022-10-16T04:36:53;13.30;99.90
25346;DHT22;13300;51.032;3.710;2022-10-16T04:39:18;13.30;99.90
25346;DHT22;13300;51.032;3.710;2022-10-16T04:41:44;13.20;99.90
25346;DHT22;13300;51.032;3.710;2022-10-16T04:44:10;13.20;99.90
25346;DHT22;13300;51.032;3.710;2022-10-16T04:46:35;13.20;99.90
25346;DHT22;13300;51.032;3.710;2022-10-16T04:49:01;13.20;99.90
25346;DHT22;13300;51.032;3.710;2022-10-16T04:51:26;13.20;99.90
25346;DHT22;13300;51.032;3.710;2022-10-16T04:53:53;13.20;99.90
25346;DHT22;13300;51.032;3.710;2022-10-16T04:56:20;13.10;99.90
25346;DHT22;13300;51.032;3.710;2022-10-16T04:58:47;13.10;99.90
25346;DHT22;13300;51.032;3.710;2022-10-16T05:01:12;13.30;99.90
25346;DHT22;13300;51.032;3.710;2022-10-16T05:03:38;13.30;99.90
25346;DHT22;13300;51.032;3.710;2022-10-16T05:06:06;13.20;99.90
25346;DHT22;13300;51.032;3.710;2022-10-16T05:08:31;13.10;99.90
25346;DHT22;13300;51.032;3.710;2022-10-16T05:10:57;13.20;99.90
25346;DHT22;13300;51.032;3.710;2022-10-16T05:13:23;13.20;99.90
25346;DHT22;13300;51.032;3.710;2022-10-16T05:15:49;13.10;99.90
25346;DHT22;13300;51.032;3.710;2022-10-16T05:18:15;13.20;99.90
25346;DHT22;13300;51.032;3.710;2022-10-16T05:20:41;13.30;99.90
25346;DHT22;13300;51.032;3.710;2022-10-16T05:23:07;13.30;99.90
25346;DHT22;13300;51.032;3.710;2022-10-16T05:25:36;13.40;99.90
25346;DHT22;13300;51.032;3.710;2022-10-16T05:28:02;13.50;99.90
25346;DHT22;13300;51.032;3.710;2022-10-16T05:30:27;13.50;99.90
25346;DHT22;13300;51.032;3.710;2022-10-16T05:32:53;13.60;99.90
25346;DHT22;13300;51.032;3.710;2022-10-16T05:35:20;13.70;99.90
25346;DHT22;13300;51.032;3.710;2022-10-16T05:37:46;13.60;99.90
25346;DHT22;13300;51.032;3.710;2022-10-16T05:40:12;13.70;99.90
25346;DHT22;13300;51.032;3.710;2022-10-16T05:42:38;13.80;99.90
25346;DHT22;13300;51.032;3.710;2022-10-16T05:45:09;13.90;99.90
25346;DHT22;13300;51.032;3.710;2022-10-16T05:47:35;14.00;99.90
25346;DHT22;13300;51.032;3.710;2022-10-16T05:50:02;13.80;99.90
25346;DHT22;13300;51.032;3.710;2022-10-16T05:52:29;13.80;99.90
25346;DHT22;13300;51.032;3.710;2022-10-16T05:54:55;13.80;99.90
25346;DHT22;13300;51.032;3.710;2022-10-16T05:57:20;13.80;99.90
25346;DHT22;13300;51.032;3.710;2022-10-16T05:59:46;13.60;99.90
25346;DHT22;13300;51.032;3.710;2022-10-16T06:02:13;13.60;99.90
25346;DHT22;13300;51.032;3.710;2022-10-16T06:04:39;13.40;99.90
25346;DHT22;13300;51.032;3.710;2022-10-16T06:07:05;13.30;99.90
25346;DHT22;13300;51.032;3.710;2022-10-16T06:09:30;13.40;99.90
25346;DHT22;13300;51.032;3.710;2022-10-16T06:11:56;13.40;99.90
25346;DHT22;13300;51.032;3.710;2022-10-16T06:14:22;13.40;99.90
25346;DHT22;13300;51.032;3.710;2022-10-16T06:16:47;13.40;99.90
25346;DHT22;13300;51.032;3.710;2022-10-16T06:19:13;13.30;99.90
25346;DHT22;13300;51.032;3.710;2022-10-16T06:21:39;13.30;99.90
25346;DHT22;13300;51.032;3.710;2022-10-16T06:24:04;13.30;99.90
25346;DHT22;13300;51.032;3.710;2022-10-16T06:26:30;13.20;99.90
25346;DHT22;13300;51.032;3.710;2022-10-16T06:28:57;13.20;99.90
25346;DHT22;13300;51.032;3.710;2022-10-16T06:31:23;13.20;99.90
25346;DHT22;13300;51.032;3.710;2022-10-16T06:33:53;13.30;99.90
25346;DHT22;13300;51.032;3.710;2022-10-16T06:36:19;13.40;99.90
25346;DHT22;13300;51.032;3.710;2022-10-16T06:38:45;13.40;99.90
25346;DHT22;13300;51.032;3.710;2022-10-16T06:41:17;13.40;99.90
25346;DHT22;13300;51.032;3.710;2022-10-16T06:43:44;13.50;99.90
25346;DHT22;13300;51.032;3.710;2022-10-16T06:46:15;14.00;99.90
25346;DHT22;13300;51.032;3.710;2022-10-16T06:48:41;14.60;99.90
25346;DHT22;13300;51.032;3.710;2022-10-16T06:51:19;15.50;99.90
25346;DHT22;13300;51.032;3.710;2022-10-16T06:53:47;16.00;99.90
25346;DHT22;13300;51.032;3.710;2022-10-16T06:56:23;16.30;99.90
25346;DHT22;13300;51.032;3.710;2022-10-16T06:58:49;16.50;99.90
25346;DHT22;13300;51.032;3.710;2022-10-16T07:01:17;17.00;99.90
25346;DHT22;13300;51.032;3.710;2022-10-16T07:03:44;17.50;99.90
25346;DHT22;13300;51.032;3.710;2022-10-16T07:06:17;17.60;99.90
25346;DHT22;13300;51.032;3.710;2022-10-16T07:08:44;18.00;99.90
25346;DHT22;13300;51.032;3.710;2022-10-16T07:11:14;18.30;99.90
25346;DHT22;13300;51.032;3.710;2022-10-16T07:13:41;18.60;99.90
25346;DHT22;13300;51.032;3.710;2022-10-16T07:16:19;18.70;99.90
25346;DHT22;13300;51.032;3.710;2022-10-16T07:18:45;18.90;99.90
25346;DHT22;13300;51.032;3.710;2022-10-16T07:21:17;18.80;99.90
25346;DHT22;13300;51.032;3.710;2022-10-16T07:23:43;18.80;99.90
25346;DHT22;13300;51.032;3.710;2022-10-16T07:26:09;18.90;99.90
25346;DHT22;13300;51.032;3.710;2022-10-16T07:28:35;18.30;99.90
25346;DHT22;13300;51.032;3.710;2022-10-16T07:31:07;17.50;99.90
25346;DHT22;13300;51.032;3.710;2022-10-16T07:33:34;17.10;99.90
25346;DHT22;13300;51.032;3.710;2022-10-16T07:36:00;16.60;99.90
25346;DHT22;13300;51.032;3.710;2022-10-16T07:38:26;17.10;99.90
25346;DHT22;13300;51.032;3.710;2022-10-16T07:41:03;17.50;99.90
25346;DHT22;13300;51.032;3.710;2022-10-16T07:43:29;18.00;99.90
25346;DHT22;13300;51.032;3.710;2022-10-16T07:45:56;18.20;99.90
25346;DHT22;13300;51.032;3.710;2022-10-16T07:48:22;19.10;99.90
25346;DHT22;13300;51.032;3.710;2022-10-16T07:50:48;19.70;99.90
25346;DHT22;13300;51.032;3.710;2022-10-16T07:53:15;19.80;99.90
25346;DHT22;13300;51.032;3.710;2022-10-16T07:55:40;19.10;99.90
25346;DHT22;13300;51.032;3.710;2022-10-16T07:58:06;18.50;99.90
25346;DHT22;13300;51.032;3.710;2022-10-16T08:00:32;18.00;99.90
25346;DHT22;13300;51.032;3.710;2022-10-16T08:02:58;17.90;99.90
25346;DHT22;13300;51.032;3.710;2022-10-16T08:05:28;18.40;99.90
25346;DHT22;13300;51.032;3.710;2022-10-16T08:07:55;19.50;99.90
25346;DHT22;13300;51.032;3.710;2022-10-16T08:10:22;20.10;99.90
25346;DHT22;13300;51.032;3.710;2022-10-16T08:12:48;20.90;99.90
25346;DHT22;13300;51.032;3.710;2022-10-16T08:15:14;21.50;99.90
25346;DHT22;13300;51.032;3.710;2022-10-16T08:17:40;22.20;99.90
25346;DHT22;13300;51.032;3.710;2022-10-16T08:20:06;23.20;99.90
25346;DHT22;13300;51.032;3.710;2022-10-16T08:22:32;24.20;99.90
25346;DHT22;13300;51.032;3.710;2022-10-16T08:24:57;24.40;99.90
25346;DHT22;13300;51.032;3.710;2022-10-16T08:27:23;25.00;99.90
25346;DHT22;13300;51.032;3.710;2022-10-16T08:29:49;24.60;99.90
25346;DHT22;13300;51.032;3.710;2022-10-16T08:32:15;24.60;99.90
25346;DHT22;13300;51.032;3.710;2022-10-16T08:34:41;23.20;99.90
25346;DHT22;13300;51.032;3.710;2022-10-16T08:37:06;22.10;99.90
25346;DHT22;13300;51.032;3.710;2022-10-16T08:39:36;21.70;99.90
25346;DHT22;13300;51.032;3.710;2022-10-16T08:45:09;20.90;99.90
25346;DHT22;13300;51.032;3.710;2022-10-16T08:50:40;21.30;99.90
25346;DHT22;13300;51.032;3.710;2022-10-16T08:53:07;21.40;99.90
25346;DHT22;13300;51.032;3.710;2022-10-16T08:55:52;21.50;99.90
25346;DHT22;13300;51.032;3.710;2022-10-16T08:58:21;22.10;99.90
25346;DHT22;13300;51.032;3.710;2022-10-16T09:00:54;22.30;99.90
25346;DHT22;13300;51.032;3.710;2022-10-16T09:06:47;22.80;99.90
25346;DHT22;13300;51.032;3.710;2022-10-16T09:12:21;23.40;99.90
25346;DHT22;13300;51.032;3.710;2022-10-16T09:20:32;25.50;99.90
25346;DHT22;13300;51.032;3.710;2022-10-16T09:23:12;26.60;99.90
25346;DHT22;13300;51.032;3.710;2022-10-16T09:25:39;27.10;99.90
25346;DHT22;13300;51.032;3.710;2022-10-16T09:28:08;27.20;99.90
25346;DHT22;13300;51.032;3.710;2022-10-16T09:30:34;27.00;99.90
25346;DHT22;13300;51.032;3.710;2022-10-16T09:33:00;26.90;99.90
25346;DHT22;13300;51.032;3.710;2022-10-16T09:38:01;26.70;99.90
25346;DHT22;13300;51.032;3.710;2022-10-16T09:40:33;26.80;99.90
25346;DHT22;13300;51.032;3.710;2022-10-16T09:45:43;27.80;99.90
25346;DHT22;13300;51.032;3.710;2022-10-16T09:48:19;28.60;99.90
25346;DHT22;13300;51.032;3.710;2022-10-16T09:50:59;28.80;99.70
25346;DHT22;13300;51.032;3.710;2022-10-16T09:53:42;28.70;99.70
25346;DHT22;13300;51.032;3.710;2022-10-16T09:56:11;28.50;99.70
25346;DHT22;13300;51.032;3.710;2022-10-16T09:58:42;28.20;99.70
25346;DHT22;13300;51.032;3.710;2022-10-16T10:01:14;28.30;99.90
25346;DHT22;13300;51.032;3.710;2022-10-16T10:03:42;28.70;99.70
25346;DHT22;13300;51.032;3.710;2022-10-16T10:06:25;29.00;99.10
25346;DHT22;13300;51.032;3.710;2022-10-16T10:11:54;28.80;97.70
25346;DHT22;13300;51.032;3.710;2022-10-16T10:14:35;28.20;99.00
25346;DHT22;13300;51.032;3.710;2022-10-16T10:38:54;28.30;98.30
25346;DHT22;13300;51.032;3.710;2022-10-16T10:41:46;27.90;98.40
25346;DHT22;13300;51.032;3.710;2022-10-16T11:00:54;25.40;99.90
25346;DHT22;13300;51.032;3.710;2022-10-16T11:06:16;27.20;99.60
25346;DHT22;13300;51.032;3.710;2022-10-16T11:08:48;28.20;96.80
25346;DHT22;13300;51.032;3.710;2022-10-16T11:11:25;28.60;96.60
25346;DHT22;13300;51.032;3.710;2022-10-16T11:13:55;29.00;96.80
25346;DHT22;13300;51.032;3.710;2022-10-16T11:16:35;29.10;95.50
25346;DHT22;13300;51.032;3.710;2022-10-16T11:19:34;28.50;97.60
25346;DHT22;13300;51.032;3.710;2022-10-16T11:22:09;28.10;96.70
25346;DHT22;13300;51.032;3.710;2022-10-16T11:28:07;26.90;98.90
25346;DHT22;13300;51.032;3.710;2022-10-16T11:30:46;26.70;98.20
25346;DHT22;13300;51.032;3.710;2022-10-16T11:41:34;27.80;96.60
25346;DHT22;13300;51.032;3.710;2022-10-16T11:46:36;25.20;98.40
25346;DHT22;13300;51.032;3.710;2022-10-16T11:49:11;24.60;99.80
25346;DHT22;13300;51.032;3.710;2022-10-16T11:51:42;25.50;99.90
25346;DHT22;13300;51.032;3.710;2022-10-16T11:57:29;26.70;98.10
25346;DHT22;13300;51.032;3.710;2022-10-16T12:00:02;27.40;97.50
25346;DHT22;13300;51.032;3.710;2022-10-16T12:08:14;28.30;95.50
25346;DHT22;13300;51.032;3.710;2022-10-16T12:10:43;28.50;95.00
25346;DHT22;13300;51.032;3.710;2022-10-16T12:18:46;28.80;95.90
25346;DHT22;13300;51.032;3.710;2022-10-16T12:21:14;29.80;93.80
25346;DHT22;13300;51.032;3.710;2022-10-16T12:23:55;30.70;92.20
25346;DHT22;13300;51.032;3.710;2022-10-16T12:26:32;30.40;92.30
25346;DHT22;13300;51.032;3.710;2022-10-16T12:31:55;29.60;93.50
25346;DHT22;13300;51.032;3.710;2022-10-16T12:34:41;29.10;93.50
25346;DHT22;13300;51.032;3.710;2022-10-16T12:37:25;28.80;94.40
25346;DHT22;13300;51.032;3.710;2022-10-16T12:39:53;28.70;95.10
25346;DHT22;13300;51.032;3.710;2022-10-16T12:42:38;29.00;95.20
25346;DHT22;13300;51.032;3.710;2022-10-16T12:45:32;29.30;95.80
25346;DHT22;13300;51.032;3.710;2022-10-16T12:48:01;30.10;94.00
25346;DHT22;13300;51.032;3.710;2022-10-16T12:50:33;30.40;93.20
25346;DHT22;13300;51.032;3.710;2022-10-16T12:53:01;30.90;91.80
25346;DHT22;13300;51.032;3.710;2022-10-16T12:55:42;31.20;91.60
25346;DHT22;13300;51.032;3.710;2022-10-16T12:58:13;29.60;91.80
25346;DHT22;13300;51.032;3.710;2022-10-16T13:00:57;29.10;92.70
25346;DHT22;13300;51.032;3.710;2022-10-16T13:06:25;28.10;95.10
25346;DHT22;13300;51.032;3.710;2022-10-16T13:09:12;27.40;94.80
25346;DHT22;13300;51.032;3.710;2022-10-16T13:17:22;24.20;98.90
25346;DHT22;13300;51.032;3.710;2022-10-16T13:20:06;23.70;99.90
25346;DHT22;13300;51.032;3.710;2022-10-16T13:28:07;22.80;99.90
25346;DHT22;13300;51.032;3.710;2022-10-16T13:30:44;22.80;99.90
25346;DHT22;13300;51.032;3.710;2022-10-16T13:33:16;22.80;99.90
25346;DHT22;13300;51.032;3.710;2022-10-16T13:35:51;22.80;99.90
25346;DHT22;13300;51.032;3.710;2022-10-16T13:38:20;23.20;99.90
25346;DHT22;13300;51.032;3.710;2022-10-16T13:40:58;24.30;99.90
25346;DHT22;13300;51.032;3.710;2022-10-16T13:43:35;25.70;99.40
25346;DHT22;13300;51.032;3.710;2022-10-16T13:46:04;26.60;97.90
25346;DHT22;13300;51.032;3.710;2022-10-16T13:48:32;26.20;97.70
25346;DHT22;13300;51.032;3.710;2022-10-16T13:51:16;25.40;98.20
25346;DHT22;13300;51.032;3.710;2022-10-16T13:53:42;23.80;99.90
25346;DHT22;13300;51.032;3.710;2022-10-16T13:56:16;23.00;99.90
25346;DHT22;13300;51.032;3.710;2022-10-16T13:58:43;22.00;99.90
25346;DHT22;13300;51.032;3.710;2022-10-16T14:03:45;21.40;99.90
25346;DHT22;13300;51.032;3.710;2022-10-16T14:06:14;21.40;99.90
25346;DHT22;13300;51.032;3.710;2022-10-16T14:09:05;21.10;99.90
25346;DHT22;13300;51.032;3.710;2022-10-16T14:11:33;20.30;99.90
25346;DHT22;13300;51.032;3.710;2022-10-16T14:13:59;20.90;99.90
25346;DHT22;13300;51.032;3.710;2022-10-16T14:16:28;21.30;99.90
25346;DHT22;13300;51.032;3.710;2022-10-16T14:19:00;21.70;99.90
25346;DHT22;13300;51.032;3.710;2022-10-16T14:21:26;21.80;99.90
25346;DHT22;13300;51.032;3.710;2022-10-16T14:23:53;21.40;99.90
25346;DHT22;13300;51.032;3.710;2022-10-16T14:26:26;21.20;99.90
25346;DHT22;13300;51.032;3.710;2022-10-16T14:29:08;21.10;99.90
25346;DHT22;13300;51.032;3.710;2022-10-16T14:31:35;21.00;99.90
25346;DHT22;13300;51.032;3.710;2022-10-16T14:34:02;20.60;99.90
25346;DHT22;13300;51.032;3.710;2022-10-16T14:36:28;20.30;99.90
25346;DHT22;13300;51.032;3.710;2022-10-16T14:39:05;20.30;99.90
25346;DHT22;13300;51.032;3.710;2022-10-16T14:41:42;20.00;99.90
25346;DHT22;13300;51.032;3.710;2022-10-16T14:44:12;19.80;99.90
25346;DHT22;13300;51.032;3.710;2022-10-16T14:46:41;19.80;99.90
25346;DHT22;13300;51.032;3.710;2022-10-16T14:51:37;19.80;99.90
25346;DHT22;13300;51.032;3.710;2022-10-16T14:54:03;19.70;99.90
25346;DHT22;13300;51.032;3.710;2022-10-16T14:56:31;19.70;99.90
25346;DHT22;13300;51.032;3.710;2022-10-16T14:58:59;19.80;99.90
25346;DHT22;13300;51.032;3.710;2022-10-16T15:01:26;20.00;99.90
25346;DHT22;13300;51.032;3.710;2022-10-16T15:03:52;19.90;99.90
25346;DHT22;13300;51.032;3.710;2022-10-16T15:06:20;19.70;99.90
25346;DHT22;13300;51.032;3.710;2022-10-16T15:08:46;19.60;99.90
25346;DHT22;13300;51.032;3.710;2022-10-16T15:11:16;19.70;99.90
25346;DHT22;13300;51.032;3.710;2022-10-16T15:13:43;19.50;99.90
25346;DHT22;13300;51.032;3.710;2022-10-16T15:16:14;19.70;99.90
25346;DHT22;13300;51.032;3.710;2022-10-16T15:18:40;19.70;99.90
25346;DHT22;13300;51.032;3.710;2022-10-16T15:21:06;19.50;99.90
25346;DHT22;13300;51.032;3.710;2022-10-16T15:23:32;19.50;99.90
25346;DHT22;13300;51.032;3.710;2022-10-16T15:25:58;19.80;99.90
25346;DHT22;13300;51.032;3.710;2022-10-16T15:28:25;19.90;99.90
25346;DHT22;13300;51.032;3.710;2022-10-16T15:30:56;20.00;99.90
25346;DHT22;13300;51.032;3.710;2022-10-16T15:33:24;19.70;99.90
25346;DHT22;13300;51.032;3.710;2022-10-16T15:35:53;19.70;99.90
25346;DHT22;13300;51.032;3.710;2022-10-16T15:38:20;19.90;99.90
25346;DHT22;13300;51.032;3.710;2022-10-16T15:40:47;19.70;99.90
25346;DHT22;13300;51.032;3.710;2022-10-16T15:43:13;19.70;99.90
25346;DHT22;13300;51.032;3.710;2022-10-16T15:45:40;19.80;99.90
25346;DHT22;13300;51.032;3.710;2022-10-16T15:48:09;19.70;99.90
25346;DHT22;13300;51.032;3.710;2022-10-16T15:50:37;19.70;99.90
25346;DHT22;13300;51.032;3.710;2022-10-16T15:53:03;19.50;99.90
25346;DHT22;13300;51.032;3.710;2022-10-16T15:55:29;19.40;99.90
25346;DHT22;13300;51.032;3.710;2022-10-16T15:57:55;19.40;99.90
25346;DHT22;13300;51.032;3.710;2022-10-16T16:00:22;19.50;99.90
25346;DHT22;13300;51.032;3.710;2022-10-16T16:02:51;19.50;99.90
25346;DHT22;13300;51.032;3.710;2022-10-16T16:05:17;19.50;99.90
25346;DHT22;13300;51.032;3.710;2022-10-16T16:07:44;19.40;99.90
25346;DHT22;13300;51.032;3.710;2022-10-16T16:10:11;19.40;99.90
25346;DHT22;13300;51.032;3.710;2022-10-16T16:12:38;19.40;99.90
25346;DHT22;13300;51.032;3.710;2022-10-16T16:15:05;19.50;99.90
25346;DHT22;13300;51.032;3.710;2022-10-16T16:17:32;19.60;99.90
25346;DHT22;13300;51.032;3.710;2022-10-16T16:19:58;19.60;99.90
25346;DHT22;13300;51.032;3.710;2022-10-16T16:22:24;19.60;99.90
25346;DHT22;13300;51.032;3.710;2022-10-16T16:24:50;19.60;99.90
25346;DHT22;13300;51.032;3.710;2022-10-16T16:27:15;19.60;99.90
25346;DHT22;13300;51.032;3.710;2022-10-16T16:29:44;19.60;99.90
25346;DHT22;13300;51.032;3.710;2022-10-16T16:32:09;19.60;99.90
25346;DHT22;13300;51.032;3.710;2022-10-16T16:34:35;19.60;99.90
25346;DHT22;13300;51.032;3.710;2022-10-16T16:37:02;19.60;99.90
25346;DHT22;13300;51.032;3.710;2022-10-16T16:39:28;19.50;99.90
25346;DHT22;13300;51.032;3.710;2022-10-16T16:41:55;19.50;99.90
25346;DHT22;13300;51.032;3.710;2022-10-16T16:44:22;19.50;99.90
25346;DHT22;13300;51.032;3.710;2022-10-16T16:46:47;19.50;99.90
25346;DHT22;13300;51.032;3.710;2022-10-16T16:49:13;19.50;99.90
25346;DHT22;13300;51.032;3.710;2022-10-16T16:51:40;19.30;99.90
25346;DHT22;13300;51.032;3.710;2022-10-16T16:54:07;19.50;99.90
25346;DHT22;13300;51.032;3.710;2022-10-16T16:56:33;19.40;99.90
25346;DHT22;13300;51.032;3.710;2022-10-16T16:59:01;19.40;99.90
25346;DHT22;13300;51.032;3.710;2022-10-16T17:01:32;19.30;99.90
25346;DHT22;13300;51.032;3.710;2022-10-16T17:03:58;19.30;99.90
25346;DHT22;13300;51.032;3.710;2022-10-16T17:06:27;19.30;99.90
25346;DHT22;13300;51.032;3.710;2022-10-16T17:08:58;19.30;99.90
25346;DHT22;13300;51.032;3.710;2022-10-16T17:11:26;19.40;99.90
25346;DHT22;13300;51.032;3.710;2022-10-16T17:14:02;19.40;99.90
25346;DHT22;13300;51.032;3.710;2022-10-16T17:16:34;19.40;99.90
25346;DHT22;13300;51.032;3.710;2022-10-16T17:19:02;19.30;99.90
25346;DHT22;13300;51.032;3.710;2022-10-16T17:21:34;19.40;99.90
25346;DHT22;13300;51.032;3.710;2022-10-16T17:24:00;19.30;99.90
25346;DHT22;13300;51.032;3.710;2022-10-16T17:26:26;19.10;99.90
25346;DHT22;13300;51.032;3.710;2022-10-16T17:28:54;19.10;99.90
25346;DHT22;13300;51.032;3.710;2022-10-16T17:31:22;19.10;99.90
25346;DHT22;13300;51.032;3.710;2022-10-16T17:33:48;19.10;99.90
25346;DHT22;13300;51.032;3.710;2022-10-16T17:36:16;19.10;99.90
25346;DHT22;13300;51.032;3.710;2022-10-16T17:38:42;19.10;99.90
25346;DHT22;13300;51.032;3.710;2022-10-16T17:41:27;19.00;99.90
25346;DHT22;13300;51.032;3.710;2022-10-16T17:43:53;18.80;99.90
25346;DHT22;13300;51.032;3.710;2022-10-16T17:46:21;18.70;99.90
25346;DHT22;13300;51.032;3.710;2022-10-16T17:48:49;18.70;99.90